Historical Weather Data

Soule Park Golf Course
1033 East Ojai Ave
Ojai, CA 93023
Date ET
(Inches)
Rain
(Inches)
Temp °F
Humidity
Avg
Wind MPH
Avg
Solar Wm2
Avg
High Ave Low
7/1/18 0.22 0.00 85.0 69.4 57.1 70 2.6 316
7/2/18 0.21 0.00 82.8 68.4 57.6 72 2.5 314
7/3/18 0.20 0.00 77.7 66.2 55.8 75 2.8 309
7/4/18 0.22 0.00 83.2 68.3 54.6 70 2.4 339
7/5/18 0.24 0.00 98.8 74.7 53.4 55 2.5 320
7/6/18 0.31 0.00 112.4 92.2 64.6 21 3.2 331
7/7/18 0.28 0.00 111.7 90.6 70.9 26 2.5 311
7/8/18 0.27 0.00 99.9 83.8 67.0 39 2.5 316
7/9/18 0.23 0.00 100.3 82.0 63.5 41 2.2 273
7/10/18 0.25 0.00 95.2 79.8 65.9 49 2.7 303
7/11/18 0.24 0.00 96.3 79.2 63.5 51 2.5 309
7/12/18 0.23 0.00 93.1 78.2 66.5 56 2.7 286
7/13/18 0.25 0.00 95.5 78.3 61.9 57 2.6 327
7/14/18 0.25 0.00 95.4 77.7 62.3 60 2.4 327
7/15/18 0.25 0.00 92.7 77.2 61.7 60 2.5 328
7/16/18 0.23 0.00 92.8 75.3 62.2 63 2.5 317
7/17/18 0.23 0.00 89.7 74.1 60.1 66 2.5 322
7/18/18 0.17 0.00 91.1 73.5 61.3 69 2.4 232
7/19/18 0.24 0.00 91.7 76.1 62.6 65 2.5 316
7/20/18 0.23 0.00 90.7 75.8 63.5 67 2.9 317
7/21/18 0.23 0.00 90.9 74.8 64.3 66 2.7 308
7/22/18 0.25 0.00 94.1 77.5 60.5 59 2.5 326
7/23/18 0.27 0.00 103.2 83.3 63.0 52 2.5 331
7/24/18 0.27 0.00 105.7 84.1 63.7 50 2.3 327
7/25/18 0.25 0.00 104.5 81.9 62.9 53 2.3 305
7/26/18 0.24 0.00 94.9 77.3 60.8 64 2.4 313
7/27/18 0.23 0.00 96.9 76.7 59.2 62 2.0 303
7/28/18 0.22 0.00 91.6 73.5 59.9 70 2.3 303
7/29/18 0.23 0.00 95.6 77.0 59.6 59 2.2 295
7/30/18 0.24 0.00 95.4 79.3 64.3 48 2.1 299
7/31/18 0.25 0.00 101.5 80.7 62.3 45 2.2 305